Time;durP1;ratioP1;P1;durP2;ratioP2;P2;SDS_P1;SDS_P2;PMS_P1;PMS_P2;Temp;Humidity;BMP_temperature;BMP_pressure;BME280_temperature;BME280_humidity;BME280_pressure;Samples;Min_cycle;Max_cycle;Signal;HPM_P1;HPM_P2
2022/08/01 00:00:29;;;;;;;;;;;;;;;;;;5087731;28;19920;-68
2022/08/01 00:02:54;;;;;;;;;;;;;;;;;;5084112;28;19969;-68
2022/08/01 00:05:20;;;;;;;;;;;;;;;;;;5083663;28;19932;-68
2022/08/01 00:07:45;;;;;;;;;;;;;;;;;;5089585;28;19927;-68
2022/08/01 00:10:13;;;;;;;;;;;;;;;;;;5086631;28;20338;-67
2022/08/01 00:12:38;;;;;;;;;;;;;;;;;;5084413;28;19916;-68
2022/08/01 00:15:05;;;;;;;;;;;;;;;;;;5087239;28;20052;-67
2022/08/01 00:17:30;;;;;;;;;;;;;;;;;;5083250;28;19923;-68
2022/08/01 00:19:56;;;;;;;;;;;;;;;;;;5083362;28;19925;-68
2022/08/01 00:22:22;;;;;;;;;;;;;;;;;;5082645;28;19916;-68
2022/08/01 00:24:47;;;;;;;;;;;;;;;;;;5081047;28;20428;-68
2022/08/01 00:27:13;;;;;;;;;;;;;;;;;;5091102;28;20011;-68
2022/08/01 00:29:38;;;;;;;;;;;;;;;;;;5084075;28;19916;-68
2022/08/01 00:32:04;;;;;;;;;;;;;;;;;;5085446;28;19999;-68
2022/08/01 00:34:30;;;;;;;;;;;;;;;;;;5083268;28;19923;-68
2022/08/01 00:36:55;;;;;;;;;;;;;;;;;;5085637;28;20436;-68
2022/08/01 00:39:20;;;;;;;;;;;;;;;;;;5079645;28;19920;-68
2022/08/01 00:41:46;;;;;;;;;;;;;;;;;;5083453;28;19943;-68
2022/08/01 00:44:11;;;;;;;;;;;;;;;;;;5083961;28;20732;-68
2022/08/01 00:46:37;;;;;;;;;;;;;;;;;;5086381;28;19923;-68
2022/08/01 00:49:03;;;;;;;;;;;;;;;;;;5087702;28;19916;-68
2022/08/01 00:51:28;;;;;;;;;;;;;;;;;;5086438;28;20452;-67
2022/08/01 00:53:54;;;;;;;;;;;;;;;;;;5086803;28;20386;-67
2022/08/01 00:56:20;;;;;;;;;;;;;;;;;;5083515;28;19938;-67
2022/08/01 00:58:46;;;;;;;;;;;;;;;;;;5081026;28;19985;-68
2022/08/01 01:01:12;;;;;;;;;;;;;;;;;;5083842;28;20423;-68
2022/08/01 01:03:37;;;;;;;;;;;;;;;;;;5082109;28;19916;-68
2022/08/01 01:06:08;;;;;;;;;;;;;;;;;;5082057;28;19917;-68
2022/08/01 01:08:48;;;;;;;;;;;;;;;;;;5087847;28;19916;-68
2022/08/01 01:11:21;;;;;;;;;;;;;;;;;;5085947;28;19923;-67
2022/08/01 01:13:50;;;;;;;;;;;;;;;;;;5090256;28;19920;-69
2022/08/01 01:16:17;;;;;;;;;;;;;;;;;;5085506;28;20317;-68
2022/08/01 01:18:47;;;;;;;;;;;;;;;;;;5090457;28;19927;-68
2022/08/01 01:21:18;;;;;;;;;;;;;;;;;;5086140;28;19928;-68
2022/08/01 01:24:09;;;;;;;;;;;;;;;;;;5089824;28;19940;-68
2022/08/01 01:26:38;;;;;;;;;;;;;;;;;;5088589;28;19916;-68
2022/08/01 01:29:15;;;;;;;;;;;;;;;;;;5088428;28;19920;-69
2022/08/01 01:31:49;;;;;;;;;;;;;;;;;;5091545;28;20399;-68
2022/08/01 01:34:16;;;;;;;;;;;;;;;;;;5086978;28;20429;-68
2022/08/01 01:36:43;;;;;;;;;;;;;;;;;;5089230;28;19916;-69
2022/08/01 01:39:09;;;;;;;;;;;;;;;;;;5087722;28;19962;-68
2022/08/01 01:41:36;;;;;;;;;;;;;;;;;;5090470;28;19942;-69
2022/08/01 01:44:02;;;;;;;;;;;;;;;;;;5087338;28;19923;-67
2022/08/01 01:46:28;;;;;;;;;;;;;;;;;;5093415;28;19931;-68
2022/08/01 01:48:55;;;;;;;;;;;;;;;;;;5085927;28;19916;-68
2022/08/01 01:51:22;;;;;;;;;;;;;;;;;;5086695;28;20370;-67
2022/08/01 01:53:47;;;;;;;;;;;;;;;;;;5086654;28;19964;-67
2022/08/01 01:56:14;;;;;;;;;;;;;;;;;;5090736;28;19925;-67
2022/08/01 01:58:40;;;;;;;;;;;;;;;;;;5085794;28;19924;-67
2022/08/01 02:01:06;;;;;;;;;;;;;;;;;;5088551;28;19965;-67
2022/08/01 02:03:32;;;;;;;;;;;;;;;;;;5084564;28;19994;-68
2022/08/01 02:05:59;;;;;;;;;;;;;;;;;;5087797;28;20380;-67
2022/08/01 02:08:24;;;;;;;;;;;;;;;;;;5086115;28;19916;-67
2022/08/01 02:13:36;;;;;;;;;;;;;;;;;;5094014;28;20343;-68
2022/08/01 02:16:02;;;;;;;;;;;;;;;;;;5086508;28;19916;-67
2022/08/01 02:18:28;;;;;;;;;;;;;;;;;;5089710;28;19991;-67
2022/08/01 02:20:55;;;;;;;;;;;;;;;;;;5081053;28;20011;-67
2022/08/01 02:23:22;;;;;;;;;;;;;;;;;;5088779;28;19959;-67
2022/08/01 02:25:49;;;;;;;;;;;;;;;;;;5086440;28;19969;-67
2022/08/01 02:28:27;;;;;;;;;;;;;;;;;;5088423;28;19916;-67
2022/08/01 02:30:53;;;;;;;;;;;;;;;;;;5083510;28;19916;-67
2022/08/01 02:33:20;;;;;;;;;;;;;;;;;;5082931;28;19923;-67
2022/08/01 02:35:53;;;;;;;;;;;;;;;;;;5088126;28;20343;-67
2022/08/01 02:38:22;;;;;;;;;;;;;;;;;;5089759;28;19916;-68
2022/08/01 02:40:50;;;;;;;;;;;;;;;;;;5084143;28;20005;-68
2022/08/01 02:43:18;;;;;;;;;;;;;;;;;;5089423;28;19951;-68
2022/08/01 02:45:45;;;;;;;;;;;;;;;;;;5084753;28;19924;-67
2022/08/01 02:48:14;;;;;;;;;;;;;;;;;;5083458;28;19938;-68
2022/08/01 02:50:41;;;;;;;;;;;;;;;;;;5093124;28;19920;-67
2022/08/01 02:53:09;;;;;;;;;;;;;;;;;;5083339;28;19960;-67
2022/08/01 02:55:36;;;;;;;;;;;;;;;;;;5089904;28;19959;-67
2022/08/01 02:58:02;;;;;;;;;;;;;;;;;;5085016;28;19927;-67
2022/08/01 03:00:29;;;;;;;;;;;;;;;;;;5088141;28;19920;-67
2022/08/01 03:02:55;;;;;;;;;;;;;;;;;;5085918;28;19947;-67
2022/08/01 03:05:22;;;;;;;;;;;;;;;;;;5083964;28;19923;-67
2022/08/01 03:07:47;;;;;;;;;;;;;;;;;;5083385;28;19920;-67
2022/08/01 03:10:14;;;;;;;;;;;;;;;;;;5086634;28;19922;-68
2022/08/01 03:12:40;;;;;;;;;;;;;;;;;;5086908;28;19970;-67
2022/08/01 03:15:06;;;;;;;;;;;;;;;;;;5085116;28;19961;-67
2022/08/01 03:17:33;;;;;;;;;;;;;;;;;;5090777;28;19924;-67
2022/08/01 03:20:02;;;;;;;;;;;;;;;;;;5083384;28;19956;-67
2022/08/01 03:22:29;;;;;;;;;;;;;;;;;;5086352;28;19970;-67
2022/08/01 03:24:56;;;;;;;;;;;;;;;;;;5082510;28;19965;-67
2022/08/01 03:27:22;;;;;;;;;;;;;;;;;;5085342;28;19923;-67
2022/08/01 03:29:49;;;;;;;;;;;;;;;;;;5080408;28;19980;-67
2022/08/01 03:32:16;;;;;;;;;;;;;;;;;;5085253;28;19920;-67
2022/08/01 03:34:42;;;;;;;;;;;;;;;;;;5083324;28;19916;-67
2022/08/01 03:37:10;;;;;;;;;;;;;;;;;;5083605;28;20105;-67
2022/08/01 03:39:48;;;;;;;;;;;;;;;;;;5083038;28;19920;-65
2022/08/01 03:42:15;;;;;;;;;;;;;;;;;;5086026;28;19958;-65
2022/08/01 03:44:45;;;;;;;;;;;;;;;;;;5083976;28;19916;-65
2022/08/01 03:47:11;;;;;;;;;;;;;;;;;;5083947;28;19916;-64
2022/08/01 03:49:39;;;;;;;;;;;;;;;;;;5087180;28;19972;-64
2022/08/01 03:52:06;;;;;;;;;;;;;;;;;;5084928;28;19975;-65
2022/08/01 03:54:34;;;;;;;;;;;;;;;;;;5084820;28;19924;-66
2022/08/01 03:57:01;;;;;;;;;;;;;;;;;;5083963;28;19920;-66
2022/08/01 03:59:26;;;;;;;;;;;;;;;;;;5083984;28;20062;-66
2022/08/01 04:01:53;;;;;;;;;;;;;;;;;;5085413;28;20015;-66
2022/08/01 04:04:18;;;;;;;;;;;;;;;;;;5084285;28;19920;-65
2022/08/01 04:06:44;;;;;;;;;;;;;;;;;;5081411;28;19923;-66
2022/08/01 04:09:11;;;;;;;;;;;;;;;;;;5085073;28;19976;-66
2022/08/01 04:11:37;;;;;;;;;;;;;;;;;;5082980;28;19916;-66
2022/08/01 04:14:03;;;;;;;;;;;;;;;;;;5086473;28;19923;-66
2022/08/01 04:16:28;;;;;;;;;;;;;;;;;;5084173;28;19917;-66
2022/08/01 04:18:54;;;;;;;;;;;;;;;;;;5084734;28;19916;-66
2022/08/01 04:21:22;;;;;;;;;;;;;;;;;;5085567;28;20007;-66
2022/08/01 04:23:48;;;;;;;;;;;;;;;;;;5087606;28;20385;-65
2022/08/01 04:26:14;;;;;;;;;;;;;;;;;;5080703;28;19995;-66
2022/08/01 04:28:42;;;;;;;;;;;;;;;;;;5084042;28;19939;-66
2022/08/01 04:31:11;;;;;;;;;;;;;;;;;;5081000;28;20251;-66
2022/08/01 04:33:42;;;;;;;;;;;;;;;;;;5082303;28;19916;-66
2022/08/01 04:36:10;;;;;;;;;;;;;;;;;;5083381;28;19923;-66
2022/08/01 04:38:36;;;;;;;;;;;;;;;;;;5080674;28;20066;-66
2022/08/01 04:41:02;;;;;;;;;;;;;;;;;;5081992;28;20022;-66
2022/08/01 04:43:28;;;;;;;;;;;;;;;;;;5091006;28;19919;-66
2022/08/01 04:45:54;;;;;;;;;;;;;;;;;;5087852;28;19916;-65
2022/08/01 04:48:19;;;;;;;;;;;;;;;;;;5088715;28;19920;-65
2022/08/01 04:50:45;;;;;;;;;;;;;;;;;;5087867;28;20545;-66
2022/08/01 04:53:17;;;;;;;;;;;;;;;;;;5089432;28;19916;-66
2022/08/01 04:55:43;;;;;;;;;;;;;;;;;;5086289;28;20559;-66
2022/08/01 04:58:10;;;;;;;;;;;;;;;;;;5087383;28;20675;-65
2022/08/01 05:00:35;;;;;;;;;;;;;;;;;;5089369;28;19928;-65
2022/08/01 05:03:01;;;;;;;;;;;;;;;;;;5082868;28;19916;-66
2022/08/01 05:05:26;;;;;;;;;;;;;;;;;;5088650;28;20390;-66
2022/08/01 05:07:51;;;;;;;;;;;;;;;;;;5088704;28;19920;-66
2022/08/01 05:10:17;;;;;;;;;;;;;;;;;;5087838;28;19920;-66
2022/08/01 05:12:42;;;;;;;;;;;;;;;;;;5092874;28;19956;-66
2022/08/01 05:15:08;;;;;;;;;;;;;;;;;;5090954;28;19986;-66
2022/08/01 05:17:34;;;;;;;;;;;;;;;;;;5089042;28;20002;-66
2022/08/01 05:19:59;;;;;;;;;;;;;;;;;;5087183;28;20015;-66
2022/08/01 05:22:25;;;;;;;;;;;;;;;;;;5089535;28;20288;-67
2022/08/01 05:24:52;;;;;;;;;;;;;;;;;;5089092;28;19916;-66
2022/08/01 05:27:17;;;;;;;;;;;;;;;;;;5090352;28;19924;-66
2022/08/01 05:29:43;;;;;;;;;;;;;;;;;;5087160;28;19926;-68
2022/08/01 05:32:09;;;;;;;;;;;;;;;;;;5088081;28;19917;-69
2022/08/01 05:34:35;;;;;;;;;;;;;;;;;;5088413;28;20011;-69
2022/08/01 05:37:00;;;;;;;;;;;;;;;;;;5090240;28;19951;-69
2022/08/01 05:39:26;;;;;;;;;;;;;;;;;;5084959;28;19938;-69
2022/08/01 05:41:51;;;;;;;;;;;;;;;;;;5091300;28;20007;-69
2022/08/01 05:44:17;;;;;;;;;;;;;;;;;;5088628;28;20352;-69
2022/08/01 05:46:42;;;;;;;;;;;;;;;;;;5089244;28;19920;-69
2022/08/01 05:49:08;;;;;;;;;;;;;;;;;;5091030;28;19920;-69
2022/08/01 05:51:33;;;;;;;;;;;;;;;;;;5089641;28;19923;-69
2022/08/01 05:53:59;;;;;;;;;;;;;;;;;;5089155;28;19924;-68
2022/08/01 05:56:24;;;;;;;;;;;;;;;;;;5088465;28;19927;-68
2022/08/01 05:58:50;;;;;;;;;;;;;;;;;;5092638;28;19916;-68
2022/08/01 06:01:16;;;;;;;;;;;;;;;;;;5090022;28;19928;-68
2022/08/01 06:03:41;;;;;;;;;;;;;;;;;;5089489;28;19916;-69
2022/08/01 06:06:07;;;;;;;;;;;;;;;;;;5086692;28;19916;-69
2022/08/01 06:08:32;;;;;;;;;;;;;;;;;;5088201;28;20038;-69
2022/08/01 06:10:58;;;;;;;;;;;;;;;;;;5087081;28;19920;-68
2022/08/01 06:13:23;;;;;;;;;;;;;;;;;;5086541;28;19916;-69
2022/08/01 06:15:49;;;;;;;;;;;;;;;;;;5081379;28;19917;-69
2022/08/01 06:18:14;;;;;;;;;;;;;;;;;;5090272;28;19924;-68
2022/08/01 06:20:40;;;;;;;;;;;;;;;;;;5087352;28;20533;-69
2022/08/01 06:23:06;;;;;;;;;;;;;;;;;;5085766;28;19916;-69
2022/08/01 06:25:31;;;;;;;;;;;;;;;;;;5083318;28;19917;-69
2022/08/01 06:27:57;;;;;;;;;;;;;;;;;;5090383;28;19920;-68
2022/08/01 06:30:23;;;;;;;;;;;;;;;;;;5086905;28;19924;-68
2022/08/01 06:32:48;;;;;;;;;;;;;;;;;;5085576;28;20409;-68
2022/08/01 06:35:15;;;;;;;;;;;;;;;;;;5085761;28;19919;-69
2022/08/01 06:37:40;;;;;;;;;;;;;;;;;;5086992;28;19916;-68
2022/08/01 06:40:07;;;;;;;;;;;;;;;;;;5086611;28;20421;-68
2022/08/01 06:42:35;;;;;;;;;;;;;;;;;;5086007;28;19928;-69
2022/08/01 06:45:02;;;;;;;;;;;;;;;;;;5086928;28;19920;-68
2022/08/01 06:47:28;;;;;;;;;;;;;;;;;;5083853;28;20109;-69
2022/08/01 06:49:53;;;;;;;;;;;;;;;;;;5088071;28;19916;-69
2022/08/01 06:52:19;;;;;;;;;;;;;;;;;;5085437;28;19916;-69
2022/08/01 06:54:44;;;;;;;;;;;;;;;;;;5084190;28;19916;-69
2022/08/01 06:57:09;;;;;;;;;;;;;;;;;;5083522;28;19916;-68
2022/08/01 06:59:35;;;;;;;;;;;;;;;;;;5088073;28;19927;-69
2022/08/01 07:02:01;;;;;;;;;;;;;;;;;;5083621;28;20018;-69
2022/08/01 07:04:26;;;;;;;;;;;;;;;;;;5088984;28;19927;-69
2022/08/01 07:06:52;;;;;;;;;;;;;;;;;;5091466;28;19915;-72
2022/08/01 07:09:17;;;;;;;;;;;;;;;;;;5085161;28;19943;-69
2022/08/01 07:11:43;;;;;;;;;;;;;;;;;;5082003;28;20019;-69
2022/08/01 07:14:08;;;;;;;;;;;;;;;;;;5086460;28;20003;-69
2022/08/01 07:16:33;;;;;;;;;;;;;;;;;;5083944;28;19944;-69
2022/08/01 07:18:59;;;;;;;;;;;;;;;;;;5083838;28;19978;-69
2022/08/01 07:21:24;;;;;;;;;;;;;;;;;;5091662;28;19919;-69
2022/08/01 07:23:50;;;;;;;;;;;;;;;;;;5086034;28;19966;-68
2022/08/01 07:26:15;;;;;;;;;;;;;;;;;;5091228;28;20037;-69
2022/08/01 07:28:41;;;;;;;;;;;;;;;;;;5086242;28;19998;-69
2022/08/01 07:31:06;;;;;;;;;;;;;;;;;;5087731;28;20003;-69
2022/08/01 07:33:32;;;;;;;;;;;;;;;;;;5087619;28;19955;-69
2022/08/01 07:35:57;;;;;;;;;;;;;;;;;;5084374;28;19924;-70
2022/08/01 07:38:22;;;;;;;;;;;;;;;;;;5083996;28;19915;-69
2022/08/01 07:40:48;;;;;;;;;;;;;;;;;;5085534;28;19966;-69
2022/08/01 07:43:13;;;;;;;;;;;;;;;;;;5089925;28;19951;-69
2022/08/01 07:45:40;;;;;;;;;;;;;;;;;;5087790;28;19916;-69
2022/08/01 07:48:05;;;;;;;;;;;;;;;;;;5085344;28;19927;-69
2022/08/01 07:50:31;;;;;;;;;;;;;;;;;;5091600;28;19916;-69
2022/08/01 07:52:57;;;;;;;;;;;;;;;;;;5083444;28;19923;-69
2022/08/01 07:55:22;;;;;;;;;;;;;;;;;;5086472;28;19960;-69
2022/08/01 07:57:48;;;;;;;;;;;;;;;;;;5085556;28;20016;-69
2022/08/01 08:00:14;;;;;;;;;;;;;;;;;;5085662;28;20010;-69
2022/08/01 08:02:39;;;;;;;;;;;;;;;;;;5082328;28;19920;-69
2022/08/01 08:05:06;;;;;;;;;;;;;;;;;;5086127;28;20612;-68
2022/08/01 08:07:31;;;;;;;;;;;;;;;;;;5083652;28;19916;-69
2022/08/01 08:09:59;;;;;;;;;;;;;;;;;;5085089;28;19920;-68
2022/08/01 08:12:24;;;;;;;;;;;;;;;;;;5082751;28;20280;-69
2022/08/01 08:14:50;;;;;;;;;;;;;;;;;;5085579;28;19923;-69
2022/08/01 08:17:15;;;;;;;;;;;;;;;;;;5084254;28;19978;-69
2022/08/01 08:19:41;;;;;;;;;;;;;;;;;;5087387;28;19926;-68
2022/08/01 08:22:07;;;;;;;;;;;;;;;;;;5088109;28;19924;-68
2022/08/01 08:24:32;;;;;;;;;;;;;;;;;;5087604;28;19960;-68
2022/08/01 08:26:59;;;;;;;;;;;;;;;;;;5085828;28;19962;-68
2022/08/01 08:29:26;;;;;;;;;;;;;;;;;;5083574;28;20394;-69
2022/08/01 08:31:52;;;;;;;;;;;;;;;;;;5085093;28;20299;-69
2022/08/01 08:34:17;;;;;;;;;;;;;;;;;;5086351;28;19923;-69
2022/08/01 08:36:43;;;;;;;;;;;;;;;;;;5087692;28;19999;-69
2022/08/01 08:39:08;;;;;;;;;;;;;;;;;;5087736;28;20294;-69
2022/08/01 08:41:35;;;;;;;;;;;;;;;;;;5087437;28;19926;-69
2022/08/01 08:44:04;;;;;;;;;;;;;;;;;;5088880;28;19973;-69
2022/08/01 08:46:32;;;;;;;;;;;;;;;;;;5087071;28;19920;-69
2022/08/01 08:48:58;;;;;;;;;;;;;;;;;;5087693;28;20302;-69
2022/08/01 08:51:25;;;;;;;;;;;;;;;;;;5091944;28;19916;-69
2022/08/01 08:53:54;;;;;;;;;;;;;;;;;;5083805;28;19958;-69
2022/08/01 08:56:20;;;;;;;;;;;;;;;;;;5085349;28;19916;-69
2022/08/01 08:58:45;;;;;;;;;;;;;;;;;;5082323;28;20280;-69
2022/08/01 09:01:12;;;;;;;;;;;;;;;;;;5084203;28;20019;-69
2022/08/01 09:03:38;;;;;;;;;;;;;;;;;;5081687;28;20341;-68
2022/08/01 09:06:04;;;;;;;;;;;;;;;;;;5086232;28;20590;-69
2022/08/01 09:08:29;;;;;;;;;;;;;;;;;;5088430;28;19955;-69
2022/08/01 09:10:55;;;;;;;;;;;;;;;;;;5085538;28;20394;-68
2022/08/01 09:13:21;;;;;;;;;;;;;;;;;;5087399;28;20303;-68
2022/08/01 09:15:47;;;;;;;;;;;;;;;;;;5082342;28;19924;-68
2022/08/01 09:18:27;;;;;;;;;;;;;;;;;;5086290;28;19916;-69
2022/08/01 09:21:09;;;;;;;;;;;;;;;;;;5080185;28;19974;-69
2022/08/01 09:23:35;;;;;;;;;;;;;;;;;;5084481;28;19920;-69
2022/08/01 09:26:00;;;;;;;;;;;;;;;;;;5086353;28;19927;-69
2022/08/01 09:28:29;;;;;;;;;;;;;;;;;;5089023;28;20375;-69
2022/08/01 09:30:55;;;;;;;;;;;;;;;;;;5087850;28;20461;-69
2022/08/01 09:33:21;;;;;;;;;;;;;;;;;;5087319;28;20406;-69
2022/08/01 09:35:54;;;;;;;;;;;;;;;;;;5090945;28;19916;-69
2022/08/01 09:38:20;;;;;;;;;;;;;;;;;;5084199;28;20407;-69
2022/08/01 09:40:52;;;;;;;;;;;;;;;;;;5085520;28;20103;-69
2022/08/01 09:43:19;;;;;;;;;;;;;;;;;;5089649;28;19916;-68
2022/08/01 09:45:44;;;;;;;;;;;;;;;;;;5091833;28;19916;-69
2022/08/01 09:48:11;;;;;;;;;;;;;;;;;;5091877;28;20406;-69
2022/08/01 09:50:41;;;;;;;;;;;;;;;;;;5099579;28;21250;-69
2022/08/01 09:53:07;;;;;;;;;;;;;;;;;;5097893;28;19981;-69
2022/08/01 09:55:33;;;;;;;;;;;;;;;;;;5094026;28;19924;-68
2022/08/01 09:58:00;;;;;;;;;;;;;;;;;;5097303;28;20584;-69
2022/08/01 10:00:26;;;;;;;;;;;;;;;;;;5095652;28;19928;-69
2022/08/01 10:02:52;;;;;;;;;;;;;;;;;;5098908;28;19916;-69
2022/08/01 10:05:18;;;;;;;;;;;;;;;;;;5093808;28;19916;-69
2022/08/01 10:07:57;;;;;;;;;;;;;;;;;;5098021;28;19924;-69
2022/08/01 10:10:22;;;;;;;;;;;;;;;;;;5097190;28;19920;-69
2022/08/01 10:12:49;;;;;;;;;;;;;;;;;;5112059;27;20409;-69
2022/08/01 10:15:16;;;;;;;;;;;;;;;;;;5096506;28;19995;-69
2022/08/01 10:17:45;;;;;;;;;;;;;;;;;;5098097;28;20462;-69
2022/08/01 10:20:11;;;;;;;;;;;;;;;;;;5095822;28;19965;-69
2022/08/01 10:22:37;;;;;;;;;;;;;;;;;;5097651;28;19924;-69
2022/08/01 10:25:04;;;;;;;;;;;;;;;;;;5096522;28;20081;-69
2022/08/01 10:27:31;;;;;;;;;;;;;;;;;;5095502;28;19920;-69
2022/08/01 10:29:57;;;;;;;;;;;;;;;;;;5098642;28;19919;-68
2022/08/01 10:32:23;;;;;;;;;;;;;;;;;;5098025;28;19916;-69
2022/08/01 10:34:52;;;;;;;;;;;;;;;;;;5109601;27;19989;-69
2022/08/01 10:37:17;;;;;;;;;;;;;;;;;;5097436;28;19999;-69
2022/08/01 10:39:43;;;;;;;;;;;;;;;;;;5097747;28;20023;-69
2022/08/01 10:42:10;;;;;;;;;;;;;;;;;;5092940;28;19967;-69
2022/08/01 10:44:36;;;;;;;;;;;;;;;;;;5089965;28;19923;-68
2022/08/01 10:47:07;;;;;;;;;;;;;;;;;;5084953;28;19916;-69
2022/08/01 10:49:36;;;;;;;;;;;;;;;;;;5083569;28;20368;-69
2022/08/01 10:52:02;;;;;;;;;;;;;;;;;;5090274;28;19916;-69
2022/08/01 10:54:27;;;;;;;;;;;;;;;;;;5086332;28;19919;-69
2022/08/01 10:56:53;;;;;;;;;;;;;;;;;;5082608;28;19963;-69
2022/08/01 10:59:20;;;;;;;;;;;;;;;;;;5094188;28;20440;-69
2022/08/01 11:01:57;;;;;;;;;;;;;;;;;;5086233;28;19967;-69
2022/08/01 11:04:32;;;;;;;;;;;;;;;;;;5087521;28;19916;-68
2022/08/01 11:07:00;;;;;;;;;;;;;;;;;;5084832;28;19916;-69
2022/08/01 11:09:30;;;;;;;;;;;;;;;;;;5087592;28;19916;-69
2022/08/01 11:11:59;;;;;;;;;;;;;;;;;;5080156;28;19923;-68
2022/08/01 11:14:25;;;;;;;;;;;;;;;;;;5086064;28;19966;-69
2022/08/01 11:16:50;;;;;;;;;;;;;;;;;;5081785;28;20332;-69
2022/08/01 11:19:16;;;;;;;;;;;;;;;;;;5083275;28;19974;-69
2022/08/01 11:21:56;;;;;;;;;;;;;;;;;;5084063;28;19920;-69
2022/08/01 11:24:41;;;;;;;;;;;;;;;;;;5079125;28;20367;-69
2022/08/01 11:27:15;;;;;;;;;;;;;;;;;;5082987;28;19947;-69
2022/08/01 11:29:40;;;;;;;;;;;;;;;;;;5081171;28;20176;-69
2022/08/01 11:32:25;;;;;;;;;;;;;;;;;;5084832;28;19924;-69
2022/08/01 11:34:52;;;;;;;;;;;;;;;;;;5084123;28;19920;-69
2022/08/01 11:37:27;;;;;;;;;;;;;;;;;;5086432;28;19927;-69
2022/08/01 11:40:28;;;;;;;;;;;;;;;;;;5085471;28;20378;-68
2022/08/01 11:43:12;;;;;;;;;;;;;;;;;;5066339;28;19920;-69
2022/08/01 11:45:50;;;;;;;;;;;;;;;;;;5062106;28;20030;-69
2022/08/01 11:48:21;;;;;;;;;;;;;;;;;;5062598;28;20065;-68
2022/08/01 11:50:49;;;;;;;;;;;;;;;;;;5067072;28;20362;-68
2022/08/01 11:53:15;;;;;;;;;;;;;;;;;;5060800;28;19920;-69
2022/08/01 11:55:45;;;;;;;;;;;;;;;;;;5062714;28;20033;-68
2022/08/01 11:58:10;;;;;;;;;;;;;;;;;;5061836;28;19928;-69
2022/08/01 12:00:37;;;;;;;;;;;;;;;;;;5063228;28;19969;-68
2022/08/01 12:03:03;;;;;;;;;;;;;;;;;;5057602;28;19940;-70
2022/08/01 12:05:30;;;;;;;;;;;;;;;;;;5062314;28;19924;-69
2022/08/01 12:07:56;;;;;;;;;;;;;;;;;;5061671;28;20079;-68
2022/08/01 12:10:26;;;;;;;;;;;;;;;;;;5064286;28;19920;-69
2022/08/01 12:12:53;;;;;;;;;;;;;;;;;;5062416;28;19920;-69
2022/08/01 12:15:20;;;;;;;;;;;;;;;;;;5064463;28;20445;-69
2022/08/01 12:17:50;;;;;;;;;;;;;;;;;;5079477;28;19916;-69
2022/08/01 12:20:19;;;;;;;;;;;;;;;;;;5078131;28;19924;-69
2022/08/01 12:22:44;;;;;;;;;;;;;;;;;;5086957;28;19938;-69
2022/08/01 12:25:10;;;;;;;;;;;;;;;;;;5085682;28;20384;-69
2022/08/01 12:27:36;;;;;;;;;;;;;;;;;;5081512;28;20370;-69
2022/08/01 12:30:04;;;;;;;;;;;;;;;;;;5079956;28;19920;-69
2022/08/01 12:32:31;;;;;;;;;;;;;;;;;;5083053;28;19916;-69
2022/08/01 12:35:00;;;;;;;;;;;;;;;;;;5080816;28;20310;-69
2022/08/01 12:37:25;;;;;;;;;;;;;;;;;;5082257;28;20403;-68
2022/08/01 12:39:51;;;;;;;;;;;;;;;;;;5083688;28;19920;-69
2022/08/01 12:42:17;;;;;;;;;;;;;;;;;;5081347;28;19927;-68
2022/08/01 12:44:44;;;;;;;;;;;;;;;;;;5083932;28;19927;-69
2022/08/01 12:47:10;;;;;;;;;;;;;;;;;;5082848;28;19924;-68
2022/08/01 12:49:36;;;;;;;;;;;;;;;;;;5089951;28;19919;-69
2022/08/01 12:52:02;;;;;;;;;;;;;;;;;;5081828;28;19920;-69
2022/08/01 12:54:28;;;;;;;;;;;;;;;;;;5082102;28;19919;-69
2022/08/01 12:56:53;;;;;;;;;;;;;;;;;;5078511;28;19927;-68
2022/08/01 12:59:22;;;;;;;;;;;;;;;;;;5088364;28;19931;-69
2022/08/01 13:01:48;;;;;;;;;;;;;;;;;;5079872;28;20325;-68
2022/08/01 13:04:14;;;;;;;;;;;;;;;;;;5088002;28;19973;-69
2022/08/01 13:06:39;;;;;;;;;;;;;;;;;;5083750;28;19924;-69
2022/08/01 13:09:05;;;;;;;;;;;;;;;;;;5088697;28;19966;-68
2022/08/01 13:11:31;;;;;;;;;;;;;;;;;;5080290;28;19919;-69
2022/08/01 13:13:57;;;;;;;;;;;;;;;;;;5086918;28;20446;-69
2022/08/01 13:16:26;;;;;;;;;;;;;;;;;;5083529;28;20311;-69
2022/08/01 13:18:52;;;;;;;;;;;;;;;;;;5084297;28;19916;-69
2022/08/01 13:21:19;;;;;;;;;;;;;;;;;;5083632;28;19927;-69
2022/08/01 13:24:03;;;;;;;;;;;;;;;;;;5090349;28;19916;-69
2022/08/01 13:26:41;;;;;;;;;;;;;;;;;;5086797;28;20189;-69
2022/08/01 13:29:07;;;;;;;;;;;;;;;;;;5082764;28;19974;-69
2022/08/01 13:31:33;;;;;;;;;;;;;;;;;;5090960;28;19935;-69
2022/08/01 13:33:59;;;;;;;;;;;;;;;;;;5082547;28;19920;-69
2022/08/01 13:36:26;;;;;;;;;;;;;;;;;;5087540;28;19916;-69
2022/08/01 13:41:36;;;;;;;;;;;;;;;;;;5087896;28;19924;-69
2022/08/01 13:44:02;;;;;;;;;;;;;;;;;;5086983;28;19920;-69
2022/08/01 13:46:28;;;;;;;;;;;;;;;;;;5089523;28;20195;-68
2022/08/01 13:48:53;;;;;;;;;;;;;;;;;;5080677;28;19920;-68
2022/08/01 13:51:19;;;;;;;;;;;;;;;;;;5085504;28;19920;-68
2022/08/01 13:53:44;;;;;;;;;;;;;;;;;;5084520;28;19927;-68
2022/08/01 13:56:10;;;;;;;;;;;;;;;;;;5084196;28;19981;-68
2022/08/01 13:58:36;;;;;;;;;;;;;;;;;;5084275;28;20295;-68
2022/08/01 14:01:01;;;;;;;;;;;;;;;;;;5083121;28;19924;-68
2022/08/01 14:03:27;;;;;;;;;;;;;;;;;;5089148;28;20200;-68
2022/08/01 14:05:53;;;;;;;;;;;;;;;;;;5082685;28;20383;-68
2022/08/01 14:08:18;;;;;;;;;;;;;;;;;;5086334;28;20215;-68
2022/08/01 14:10:44;;;;;;;;;;;;;;;;;;5083777;28;19948;-69
2022/08/01 14:13:09;;;;;;;;;;;;;;;;;;5087102;28;19930;-69
2022/08/01 14:15:36;;;;;;;;;;;;;;;;;;5080800;28;20383;-68
2022/08/01 14:18:02;;;;;;;;;;;;;;;;;;5084778;28;19916;-68
2022/08/01 14:20:27;;;;;;;;;;;;;;;;;;5083583;28;19931;-68
2022/08/01 14:22:53;;;;;;;;;;;;;;;;;;5086164;28;19956;-68
2022/08/01 14:25:18;;;;;;;;;;;;;;;;;;5084424;28;19931;-68
2022/08/01 14:27:44;;;;;;;;;;;;;;;;;;5085223;28;20349;-68
2022/08/01 14:30:10;;;;;;;;;;;;;;;;;;5081311;28;19924;-68
2022/08/01 14:32:35;;;;;;;;;;;;;;;;;;5088460;28;20007;-68
2022/08/01 14:35:01;;;;;;;;;;;;;;;;;;5080510;28;19977;-68
2022/08/01 14:37:28;;;;;;;;;;;;;;;;;;5085915;28;20316;-68
2022/08/01 14:39:54;;;;;;;;;;;;;;;;;;5084659;28;20474;-68
2022/08/01 14:42:20;;;;;;;;;;;;;;;;;;5081661;28;20003;-68
2022/08/01 14:44:45;;;;;;;;;;;;;;;;;;5088856;28;19920;-68
2022/08/01 14:47:11;;;;;;;;;;;;;;;;;;5082497;28;20007;-68
2022/08/01 14:49:37;;;;;;;;;;;;;;;;;;5084468;28;20383;-68
2022/08/01 14:52:03;;;;;;;;;;;;;;;;;;5083406;28;19916;-68
2022/08/01 14:54:29;;;;;;;;;;;;;;;;;;5089486;28;19916;-68
2022/08/01 14:56:54;;;;;;;;;;;;;;;;;;5082492;28;20376;-68
2022/08/01 14:59:19;;;;;;;;;;;;;;;;;;5083872;28;19927;-68
2022/08/01 15:01:45;;;;;;;;;;;;;;;;;;5084554;28;20312;-68
2022/08/01 15:04:10;;;;;;;;;;;;;;;;;;5090080;28;19924;-68
2022/08/01 15:06:36;;;;;;;;;;;;;;;;;;5081239;28;20421;-68
2022/08/01 15:09:02;;;;;;;;;;;;;;;;;;5088050;28;20251;-68
2022/08/01 15:11:28;;;;;;;;;;;;;;;;;;5086115;28;20007;-68
2022/08/01 15:16:37;;;;;;;;;;;;;;;;;;5085512;28;19969;-69
2022/08/01 15:19:03;;;;;;;;;;;;;;;;;;5085191;28;19925;-68
2022/08/01 15:21:29;;;;;;;;;;;;;;;;;;5079922;28;20371;-68
2022/08/01 15:23:54;;;;;;;;;;;;;;;;;;5081492;28;19920;-68
2022/08/01 15:26:19;;;;;;;;;;;;;;;;;;5084084;28;19919;-66
2022/08/01 15:28:45;;;;;;;;;;;;;;;;;;5083522;28;19939;-66
2022/08/01 15:31:11;;;;;;;;;;;;;;;;;;5087521;28;21630;-65
2022/08/01 15:33:36;;;;;;;;;;;;;;;;;;5067720;28;19950;-66
2022/08/01 15:36:02;;;;;;;;;;;;;;;;;;5085968;28;20414;-66
2022/08/01 15:38:28;;;;;;;;;;;;;;;;;;5090562;28;19916;-66
2022/08/01 15:40:53;;;;;;;;;;;;;;;;;;5089020;28;19927;-67
2022/08/01 15:43:18;;;;;;;;;;;;;;;;;;5086803;28;19924;-65
2022/08/01 15:45:44;;;;;;;;;;;;;;;;;;5085830;28;19942;-78
2022/08/01 15:49:51;;;;;;;7.13;6.43;;;;;;;;;;5083985;27;20951;-76
2022/08/01 15:52:16;;;;;;;7.57;7.07;;;;;;;;;;5024153;28;20080;-80
2022/08/01 15:54:42;;;;;;;7.45;6.65;;;;;;;;;;5046449;28;20075;-77
2022/08/01 15:57:09;;;;;;;6.47;5.88;;;;;;;;;;5063493;28;20044;-77
2022/08/01 15:59:35;;;;;;;6.40;5.80;;;;;;;;;;5063856;28;20087;-77
2022/08/01 16:02:00;;;;;;;6.45;6.05;;;;;;;;;;5063477;28;20056;-77
2022/08/01 16:04:26;;;;;;;7.72;6.40;;;;;;;;;;5067778;28;20044;-77
2022/08/01 16:06:51;;;;;;;6.40;5.90;;;;;;;;;;5067737;28;20043;-76
2022/08/01 16:09:17;;;;;;;7.03;6.00;;;;;;;;;;5065141;28;20055;-77
2022/08/01 16:11:43;;;;;;;6.22;5.82;;;;;;;;;;5061170;28;20029;-77
2022/08/01 16:14:09;;;;;;;6.55;6.00;;;;;;;;;;5046296;28;20050;-75
2022/08/01 16:16:35;;;;;;;6.22;5.80;;;;;;;;;;5062311;28;20488;-75
2022/08/01 16:19:00;;;;;;;6.32;5.93;;;;;;;;;;5062185;28;20070;-75
2022/08/01 16:21:26;;;;;;;6.47;5.93;;;;;;;;;;5047115;28;20111;-76
2022/08/01 16:23:52;;;;;;;6.57;6.18;;;;;;;;;;5064080;28;20155;-74
2022/08/01 16:26:18;;;;;;;6.28;5.80;;;;;;;;;;5062987;28;20511;-75
2022/08/01 16:28:47;;;;;;;6.28;5.78;;;;;;;;;;5058106;28;20059;-75
2022/08/01 16:31:15;;;;;;;6.18;5.68;;;;;;;;;;5063313;28;20029;-74
2022/08/01 16:33:41;;;;;;;7.20;6.25;;;;;;;;;;5061799;28;20052;-74
2022/08/01 16:36:07;;;;;;;6.40;6.00;;;;;;;;;;5063411;28;20033;-76
2022/08/01 16:38:33;;;;;;;6.25;5.80;;;;;;;;;;5064153;28;20059;-75
2022/08/01 16:40:58;;;;;;;6.40;5.80;;;;;;;;;;5062081;28;20065;-76
2022/08/01 16:43:24;;;;;;;6.40;5.80;;;;;;;;;;5058714;28;20075;-76